createdAt,value
2024-01-03T00:01:30.779Z,65.15
2024-01-03T00:03:58.021Z,65.59
2024-01-03T00:06:24.676Z,64.95
2024-01-03T00:08:51.135Z,64.49
2024-01-03T00:11:21.275Z,65.31
2024-01-03T00:13:47.761Z,64.70
2024-01-03T00:16:14.325Z,64.62
2024-01-03T00:18:41.335Z,64.24
2024-01-03T00:21:08.237Z,64.81
2024-01-03T00:23:34.776Z,64.15
2024-01-03T00:26:01.405Z,62.08
2024-01-03T00:28:27.962Z,63.26
2024-01-03T00:30:54.576Z,62.18
2024-01-03T00:33:21.228Z,62.31
2024-01-03T00:35:49.750Z,62.69
2024-01-03T00:38:18.998Z,62.47
2024-01-03T00:40:45.887Z,61.80
2024-01-03T00:43:12.778Z,62.47
2024-01-03T00:45:39.272Z,61.55
2024-01-03T00:48:06.625Z,61.49
2024-01-03T00:50:33.966Z,61.86
2024-01-03T00:53:00.750Z,61.35
2024-01-03T00:55:27.380Z,61.93
2024-01-03T00:57:53.864Z,61.44
2024-01-03T01:00:20.292Z,62.16
2024-01-03T01:02:47.295Z,62.45
2024-01-03T01:05:13.823Z,61.84
2024-01-03T01:07:40.644Z,60.77
2024-01-03T01:10:07.261Z,60.24
2024-01-03T01:12:34.075Z,60.43
2024-01-03T01:15:03.656Z,60.41
2024-01-03T01:17:30.535Z,60.65
2024-01-03T01:19:57.180Z,60.68
2024-01-03T01:22:23.673Z,60.08
2024-01-03T01:24:50.101Z,61.74
2024-01-03T01:27:20.714Z,60.48
2024-01-03T01:29:50.288Z,61.26
2024-01-03T01:32:17.042Z,62.45
2024-01-03T01:34:43.599Z,59.61
2024-01-03T01:37:10.440Z,61.96
2024-01-03T01:39:36.975Z,62.66
2024-01-03T01:42:03.540Z,61.85
2024-01-03T01:44:30.059Z,60.32
2024-01-03T01:46:59.386Z,62.35
2024-01-03T01:49:25.841Z,61.89
2024-01-03T01:51:52.521Z,61.85
2024-01-03T01:54:19.211Z,61.78
2024-01-03T01:56:46.102Z,62.08
2024-01-03T01:59:12.971Z,60.95
2024-01-03T02:01:39.491Z,60.82
2024-01-03T02:04:06.355Z,60.73
2024-01-03T02:06:35.744Z,61.70
2024-01-03T02:09:02.553Z,61.67
2024-01-03T02:11:29.144Z,61.62
2024-01-03T02:13:56.000Z,60.95
2024-01-03T02:16:22.632Z,59.97
2024-01-03T02:18:52.016Z,60.32
2024-01-03T02:21:20.046Z,60.78
2024-01-03T02:23:46.671Z,61.03
2024-01-03T02:26:21.375Z,59.67
2024-01-03T02:28:52.800Z,61.60
2024-01-03T02:31:19.240Z,60.95
2024-01-03T02:33:45.928Z,60.74
2024-01-03T02:36:12.657Z,59.68
2024-01-03T02:38:39.429Z,59.87
2024-01-03T02:41:06.060Z,60.39
2024-01-03T02:43:32.749Z,61.04
2024-01-03T02:45:59.614Z,60.13
2024-01-03T02:48:26.217Z,59.82
2024-01-03T02:50:52.890Z,58.87
2024-01-03T02:53:19.966Z,59.28
2024-01-03T02:55:46.558Z,59.28
2024-01-03T02:58:13.200Z,59.02
2024-01-03T03:00:39.701Z,59.03
2024-01-03T03:03:06.266Z,59.63
2024-01-03T03:05:32.934Z,60.08
2024-01-03T03:07:59.816Z,59.02
2024-01-03T03:10:26.380Z,58.81
2024-01-03T03:12:52.979Z,58.47
2024-01-03T03:15:19.601Z,58.62
2024-01-03T03:17:46.237Z,58.45
2024-01-03T03:20:13.197Z,57.88
2024-01-03T03:22:39.829Z,57.91
2024-01-03T03:25:06.262Z,59.11
2024-01-03T03:27:32.911Z,59.69
2024-01-03T03:29:59.600Z,58.12
2024-01-03T03:32:26.165Z,58.02
2024-01-03T03:34:52.853Z,57.18
2024-01-03T03:37:19.554Z,57.59
2024-01-03T03:39:46.189Z,58.63
2024-01-03T03:42:12.649Z,57.44
2024-01-03T03:44:39.293Z,57.10
2024-01-03T03:47:05.746Z,58.81
2024-01-03T03:49:32.200Z,59.14
2024-01-03T03:51:58.774Z,57.63
2024-01-03T03:54:25.183Z,58.73
2024-01-03T03:56:51.670Z,58.55
2024-01-03T03:59:18.329Z,57.39
2024-01-03T04:01:44.818Z,58.00
2024-01-03T04:04:11.269Z,57.70
2024-01-03T04:06:37.741Z,58.04
2024-01-03T04:09:04.255Z,57.56
2024-01-03T04:11:30.748Z,57.96
2024-01-03T04:13:57.254Z,57.41
2024-01-03T04:16:26.516Z,58.01
2024-01-03T04:18:53.102Z,57.43
2024-01-03T04:21:19.636Z,57.57
2024-01-03T04:23:46.221Z,57.65
2024-01-03T04:26:12.750Z,56.95
2024-01-03T04:28:39.358Z,55.47
2024-01-03T04:31:05.915Z,55.70
2024-01-03T04:33:32.722Z,57.05
2024-01-03T04:35:59.398Z,56.63
2024-01-03T04:38:25.957Z,55.32
2024-01-03T04:40:52.426Z,56.15
2024-01-03T04:43:18.904Z,56.38
2024-01-03T04:45:47.858Z,56.14
2024-01-03T04:48:15.581Z,56.11
2024-01-03T04:50:42.762Z,56.09
2024-01-03T04:53:09.229Z,55.94
2024-01-03T04:55:35.757Z,55.14
2024-01-03T04:58:02.261Z,54.83
2024-01-03T05:00:29.000Z,54.80
2024-01-03T05:02:55.674Z,54.52
2024-01-03T05:05:22.364Z,53.86
2024-01-03T05:07:48.922Z,53.80
2024-01-03T05:10:15.355Z,53.99
2024-01-03T05:12:41.802Z,53.60
2024-01-03T05:15:08.385Z,53.22
2024-01-03T05:17:35.142Z,52.63
2024-01-03T05:20:01.820Z,52.71
2024-01-03T05:22:28.270Z,52.21
2024-01-03T05:24:54.673Z,51.97
2024-01-03T05:27:21.152Z,51.65
2024-01-03T05:29:47.612Z,52.12
2024-01-03T05:32:14.049Z,51.76
2024-01-03T05:34:40.597Z,52.71
2024-01-03T05:37:07.104Z,52.85
2024-01-03T05:39:33.564Z,52.20
2024-01-03T05:42:00.082Z,52.22
2024-01-03T05:44:26.682Z,52.33
2024-01-03T05:46:53.206Z,53.24
2024-01-03T05:49:19.748Z,52.78
2024-01-03T05:51:46.213Z,52.25
2024-01-03T05:54:12.692Z,51.99
2024-01-03T05:56:39.175Z,53.13
2024-01-03T05:59:05.662Z,53.09
2024-01-03T06:01:32.131Z,52.62
2024-01-03T06:03:58.617Z,52.11
2024-01-03T06:06:25.164Z,51.85
2024-01-03T06:08:51.708Z,51.58
2024-01-03T06:11:18.179Z,51.88
2024-01-03T06:13:44.670Z,51.16
2024-01-03T06:16:11.187Z,51.40
2024-01-03T06:18:37.851Z,51.38
2024-01-03T06:21:04.412Z,51.46
2024-01-03T06:23:30.973Z,50.69
2024-01-03T06:25:57.541Z,50.67
2024-01-03T06:28:24.010Z,49.92
2024-01-03T06:30:50.547Z,49.66
2024-01-03T06:33:17.210Z,50.07
2024-01-03T06:35:43.783Z,50.22
2024-01-03T06:38:10.467Z,49.87
2024-01-03T06:40:37.124Z,49.64
2024-01-03T06:43:03.642Z,49.45
2024-01-03T06:45:30.057Z,50.28
2024-01-03T06:47:56.652Z,50.23
2024-01-03T06:50:23.261Z,49.30
2024-01-03T06:52:49.788Z,50.51
2024-01-03T06:55:16.312Z,50.93
2024-01-03T06:57:42.803Z,50.67
2024-01-03T07:00:09.434Z,52.48
2024-01-03T07:02:36.081Z,52.13
2024-01-03T07:05:02.614Z,51.93
2024-01-03T07:07:29.076Z,52.20
2024-01-03T07:09:55.696Z,52.66
2024-01-03T07:12:22.226Z,51.84
2024-01-03T07:14:48.862Z,51.64
2024-01-03T07:17:15.404Z,52.83
2024-01-03T07:19:41.850Z,52.68
2024-01-03T07:22:08.402Z,51.30
2024-01-03T07:24:34.829Z,51.55
2024-01-03T07:27:01.398Z,51.40
2024-01-03T07:29:27.950Z,51.03
2024-01-03T07:31:54.581Z,50.62
2024-01-03T07:34:21.184Z,50.54
2024-01-03T07:36:49.887Z,49.64
2024-01-03T07:39:17.460Z,49.75
2024-01-03T07:41:44.231Z,49.42
2024-01-03T07:44:10.714Z,48.71
2024-01-03T07:46:37.283Z,48.54
2024-01-03T07:49:03.953Z,48.79
2024-01-03T07:51:30.542Z,48.77
2024-01-03T07:53:57.026Z,48.60
2024-01-03T07:56:23.701Z,48.25
2024-01-03T07:58:50.168Z,48.76
2024-01-03T08:01:16.656Z,48.87
2024-01-03T08:03:43.149Z,49.39
2024-01-03T08:06:09.848Z,49.80
2024-01-03T08:08:36.406Z,49.52
2024-01-03T08:11:02.903Z,49.52
2024-01-03T08:13:29.383Z,49.20
2024-01-03T08:15:55.825Z,48.67
2024-01-03T08:18:22.487Z,48.73
2024-01-03T08:20:49.109Z,48.89
2024-01-03T08:23:15.807Z,48.42
2024-01-03T08:25:42.278Z,49.79
2024-01-03T08:28:08.989Z,50.68
2024-01-03T08:30:35.662Z,50.12
2024-01-03T08:33:02.397Z,49.60
2024-01-03T08:35:29.022Z,49.69
2024-01-03T08:37:55.572Z,48.80
2024-01-03T08:40:22.129Z,48.61
2024-01-03T08:42:48.952Z,48.15
2024-01-03T08:45:15.487Z,48.56
2024-01-03T08:47:42.101Z,48.21
2024-01-03T08:50:08.744Z,49.15
2024-01-03T08:52:37.500Z,49.51
2024-01-03T08:55:03.951Z,48.50
2024-01-03T08:57:30.428Z,48.52
2024-01-03T08:59:57.046Z,47.49
2024-01-03T09:02:23.669Z,48.64
2024-01-03T09:04:50.192Z,48.27
2024-01-03T09:07:16.734Z,48.06
2024-01-03T09:09:43.249Z,47.20
2024-01-03T09:12:09.765Z,46.58
2024-01-03T09:14:36.424Z,46.83
2024-01-03T09:17:03.008Z,47.64
2024-01-03T09:19:29.565Z,46.48
2024-01-03T09:21:56.212Z,46.81
2024-01-03T09:24:22.706Z,46.52
2024-01-03T09:26:49.235Z,46.71
2024-01-03T09:29:15.783Z,45.38
2024-01-03T09:31:42.342Z,45.43
2024-01-03T09:34:09.049Z,44.33
2024-01-03T09:36:35.660Z,44.49
2024-01-03T09:39:02.277Z,44.38
2024-01-03T09:41:28.776Z,44.21
2024-01-03T09:43:55.283Z,44.21
2024-01-03T09:46:21.850Z,43.76
2024-01-03T09:48:48.678Z,45.08
2024-01-03T09:51:15.300Z,44.96
2024-01-03T09:53:41.984Z,44.09
2024-01-03T09:56:08.600Z,44.94
2024-01-03T09:58:35.054Z,43.71
2024-01-03T10:01:01.641Z,43.92
2024-01-03T10:03:28.126Z,44.49
2024-01-03T10:05:54.714Z,45.79
2024-01-03T10:08:21.289Z,44.48
2024-01-03T10:10:47.857Z,43.48
2024-01-03T10:13:14.375Z,44.26
2024-01-03T10:15:40.958Z,45.20
2024-01-03T10:18:07.614Z,44.74
2024-01-03T10:20:34.445Z,44.08
2024-01-03T10:23:00.934Z,44.04
2024-01-03T10:25:27.542Z,43.62
2024-01-03T10:27:54.115Z,43.55
2024-01-03T10:30:20.652Z,44.02
2024-01-03T10:32:47.441Z,43.98
2024-01-03T10:35:14.056Z,44.75
2024-01-03T10:37:41.005Z,44.61
2024-01-03T10:40:07.466Z,45.49
2024-01-03T10:42:33.906Z,44.99
2024-01-03T10:45:00.592Z,45.27
2024-01-03T10:47:27.148Z,45.91
2024-01-03T10:49:53.860Z,46.40
2024-01-03T10:52:20.292Z,46.62
2024-01-03T10:54:46.766Z,46.54
2024-01-03T10:57:13.196Z,46.78
2024-01-03T10:59:39.764Z,46.86
2024-01-03T11:02:06.271Z,46.53
2024-01-03T11:04:32.767Z,47.28
2024-01-03T11:06:59.236Z,46.93
2024-01-03T11:09:27.846Z,46.74
2024-01-03T11:11:54.842Z,46.69
2024-01-03T11:14:21.357Z,47.02
2024-01-03T11:16:47.929Z,46.46
2024-01-03T11:19:14.818Z,45.96
2024-01-03T11:21:41.484Z,45.38
2024-01-03T11:24:08.027Z,45.35
2024-01-03T11:26:34.658Z,44.71
2024-01-03T11:29:01.184Z,44.77
2024-01-03T11:31:27.790Z,44.12
2024-01-03T11:33:54.393Z,44.09
2024-01-03T11:36:20.919Z,43.81
2024-01-03T11:38:49.313Z,44.27
2024-01-03T11:41:15.782Z,43.89
2024-01-03T11:43:42.418Z,44.52
2024-01-03T11:46:09.048Z,44.55
2024-01-03T11:48:35.657Z,44.53
2024-01-03T11:51:02.259Z,44.26
2024-01-03T11:53:28.802Z,44.24
2024-01-03T11:55:55.539Z,44.95
2024-01-03T11:58:22.057Z,44.32
2024-01-03T12:00:48.588Z,44.12
2024-01-03T12:03:15.318Z,44.13
2024-01-03T12:05:42.022Z,44.23
2024-01-03T12:08:08.563Z,43.71
2024-01-03T12:10:35.050Z,43.61
2024-01-03T12:13:01.525Z,43.45
2024-01-03T12:17:57.444Z,43.41
2024-01-03T12:20:24.975Z,43.00
2024-01-03T12:22:51.493Z,43.11
2024-01-03T12:25:18.155Z,42.92
2024-01-03T12:27:44.709Z,42.95
2024-01-03T12:30:11.303Z,42.55
2024-01-03T12:32:37.917Z,42.48
2024-01-03T12:35:04.472Z,41.87
2024-01-03T12:37:30.890Z,42.57
2024-01-03T12:39:57.399Z,42.62
2024-01-03T12:42:32.281Z,42.77
2024-01-03T12:45:05.888Z,42.31
2024-01-03T12:47:32.526Z,42.43
2024-01-03T12:49:59.148Z,42.21
2024-01-03T12:52:25.703Z,42.36
2024-01-03T12:54:52.237Z,42.29
2024-01-03T12:57:18.747Z,42.72
2024-01-03T12:59:45.269Z,42.56
2024-01-03T13:02:11.940Z,42.35
2024-01-03T13:04:38.627Z,41.98
2024-01-03T13:07:05.100Z,42.20
2024-01-03T13:09:31.596Z,41.63
2024-01-03T13:11:58.124Z,40.92
2024-01-03T13:14:24.643Z,40.67
2024-01-03T13:16:51.169Z,40.23
2024-01-03T13:19:17.815Z,40.06
2024-01-03T13:21:46.742Z,40.70
2024-01-03T13:24:13.598Z,39.09
2024-01-03T13:26:40.184Z,38.82
2024-01-03T13:29:07.228Z,39.41
2024-01-03T13:31:33.797Z,39.41
2024-01-03T13:34:00.500Z,39.60
2024-01-03T13:36:27.043Z,39.21
2024-01-03T13:38:53.584Z,39.23
2024-01-03T13:41:20.412Z,39.44
2024-01-03T13:43:46.924Z,39.48
2024-01-03T13:46:13.418Z,38.90
2024-01-03T13:48:40.087Z,38.34
2024-01-03T13:51:06.776Z,38.69
2024-01-03T13:53:33.376Z,38.94
2024-01-03T13:55:59.962Z,38.67
2024-01-03T13:58:26.674Z,38.64
2024-01-03T14:00:53.196Z,38.87
2024-01-03T14:03:19.810Z,38.68
2024-01-03T14:05:46.669Z,38.37
2024-01-03T14:08:13.192Z,37.77
2024-01-03T14:10:39.640Z,37.76
2024-01-03T14:13:06.268Z,38.04
2024-01-03T14:15:32.983Z,38.06
2024-01-03T14:17:59.744Z,38.11
2024-01-03T14:20:26.540Z,37.95
2024-01-03T14:22:53.177Z,37.83
2024-01-03T14:25:19.693Z,39.15
2024-01-03T14:27:46.306Z,38.63
2024-01-03T14:30:12.860Z,39.05
2024-01-03T14:32:39.555Z,38.82
2024-01-03T14:35:06.130Z,38.71
2024-01-03T14:37:32.637Z,38.72
2024-01-03T14:39:59.211Z,38.42
2024-01-03T14:42:25.798Z,38.66
2024-01-03T14:44:52.377Z,39.24
2024-01-03T14:47:18.890Z,38.82
2024-01-03T14:49:45.545Z,38.88
2024-01-03T14:52:12.226Z,38.86
2024-01-03T14:54:38.725Z,38.54
2024-01-03T14:57:05.339Z,39.11
2024-01-03T14:59:31.980Z,38.93
2024-01-03T15:01:58.545Z,39.25
2024-01-03T15:04:25.167Z,38.54
2024-01-03T15:06:51.857Z,38.65
2024-01-03T15:09:18.357Z,38.30
2024-01-03T15:11:44.842Z,38.07
2024-01-03T15:14:13.173Z,38.71
2024-01-03T15:16:40.842Z,38.66
2024-01-03T15:19:07.413Z,39.07
2024-01-03T15:21:33.968Z,39.08
2024-01-03T15:24:00.513Z,38.96
2024-01-03T15:26:27.003Z,38.64
2024-01-03T15:28:53.514Z,38.87
2024-01-03T15:31:20.112Z,39.13
2024-01-03T15:33:46.656Z,39.22
2024-01-03T15:36:13.273Z,40.21
2024-01-03T15:38:39.797Z,40.38
2024-01-03T15:41:06.304Z,40.29
2024-01-03T15:43:32.763Z,40.80
2024-01-03T15:45:59.175Z,40.74
2024-01-03T15:48:25.896Z,40.83
2024-01-03T15:50:52.492Z,41.57
2024-01-03T15:53:18.996Z,40.44
2024-01-03T15:55:45.447Z,40.97
2024-01-03T15:58:11.914Z,41.36
2024-01-03T16:00:38.716Z,40.70
2024-01-03T16:03:05.292Z,40.67
2024-01-03T16:05:31.897Z,41.71
2024-01-03T16:07:58.405Z,41.51
2024-01-03T16:10:24.991Z,41.23
2024-01-03T16:12:51.514Z,41.31
2024-01-03T16:15:17.980Z,42.13
2024-01-03T16:17:44.589Z,41.64
2024-01-03T16:20:11.121Z,42.17
2024-01-03T16:22:37.718Z,41.93
2024-01-03T16:25:04.226Z,41.38
2024-01-03T16:27:30.896Z,41.66
2024-01-03T16:29:57.510Z,42.43
2024-01-03T16:32:24.172Z,42.42
2024-01-03T16:34:50.747Z,42.65
2024-01-03T16:37:17.407Z,42.28
2024-01-03T16:39:43.886Z,42.26
2024-01-03T16:42:10.734Z,42.09
2024-01-03T16:44:37.438Z,42.07
2024-01-03T16:47:04.062Z,42.20
2024-01-03T16:49:31.006Z,42.21
2024-01-03T16:51:58.065Z,42.22
2024-01-03T16:54:24.576Z,42.93
2024-01-03T16:56:51.283Z,42.38
2024-01-03T16:59:18.222Z,43.08
2024-01-03T17:01:45.116Z,42.48
2024-01-03T17:04:11.848Z,42.87
2024-01-03T17:06:38.430Z,43.51
2024-01-03T17:09:04.928Z,43.72
2024-01-03T17:11:31.521Z,43.65
2024-01-03T17:13:57.995Z,44.65
2024-01-03T17:16:24.682Z,45.28
2024-01-03T17:18:54.243Z,45.85
2024-01-03T17:21:20.800Z,45.83
2024-01-03T17:23:47.293Z,45.41
2024-01-03T17:26:13.824Z,44.90
2024-01-03T17:28:40.274Z,43.53
2024-01-03T17:31:06.810Z,43.92
2024-01-03T17:33:33.320Z,47.11
2024-01-03T17:35:59.941Z,46.47
2024-01-03T17:38:26.594Z,47.24
2024-01-03T17:40:53.084Z,47.44
2024-01-03T17:43:19.626Z,47.70
2024-01-03T17:45:46.127Z,50.08
2024-01-03T17:48:12.918Z,50.40
2024-01-03T17:50:39.650Z,48.91
2024-01-03T17:53:06.096Z,49.65
2024-01-03T17:55:32.678Z,49.31
2024-01-03T17:57:59.187Z,49.11
2024-01-03T18:00:25.705Z,47.73
2024-01-03T18:02:52.318Z,48.25
2024-01-03T18:05:18.914Z,48.03
2024-01-03T18:07:45.460Z,52.53
2024-01-03T18:10:11.935Z,52.09
2024-01-03T18:12:38.447Z,52.61
2024-01-03T18:15:05.204Z,53.96
2024-01-03T18:17:31.783Z,54.32
2024-01-03T18:19:58.457Z,55.75
2024-01-03T18:22:24.901Z,54.83
2024-01-03T18:24:51.358Z,55.06
2024-01-03T18:27:17.949Z,51.83
2024-01-03T18:29:44.469Z,53.15
2024-01-03T18:32:10.962Z,48.48
2024-01-03T18:34:37.619Z,48.03
2024-01-03T18:37:04.142Z,48.25
2024-01-03T18:39:30.716Z,47.05
2024-01-03T18:41:57.185Z,46.70
2024-01-03T18:44:23.682Z,46.43
2024-01-03T18:46:50.113Z,46.95
2024-01-03T18:49:16.795Z,46.81
2024-01-03T18:51:43.525Z,47.81
2024-01-03T18:54:10.009Z,47.69
2024-01-03T18:56:36.514Z,48.21
2024-01-03T18:59:03.130Z,48.30
2024-01-03T19:01:29.631Z,48.12
2024-01-03T19:03:56.149Z,48.80
2024-01-03T19:06:22.674Z,49.62
2024-01-03T19:08:49.191Z,48.07
2024-01-03T19:11:15.671Z,46.32
2024-01-03T19:13:42.462Z,46.39
2024-01-03T19:16:08.926Z,46.70
2024-01-03T19:18:35.532Z,44.81
2024-01-03T19:21:02.118Z,44.72
2024-01-03T19:23:28.676Z,45.14
2024-01-03T19:25:55.227Z,44.19
2024-01-03T19:28:21.702Z,45.86
2024-01-03T19:30:48.157Z,49.05
2024-01-03T19:33:14.832Z,48.27
2024-01-03T19:35:41.397Z,49.26
2024-01-03T19:38:08.186Z,48.63
2024-01-03T19:40:34.862Z,48.51
2024-01-03T19:43:01.337Z,47.36
2024-01-03T19:45:27.920Z,46.33
2024-01-03T19:47:54.643Z,45.84
2024-01-03T19:50:21.138Z,46.00
2024-01-03T19:52:47.661Z,46.19
2024-01-03T19:55:14.225Z,46.85
2024-01-03T19:57:40.695Z,49.13
2024-01-03T20:00:07.197Z,47.86
2024-01-03T20:02:33.880Z,48.87
2024-01-03T20:05:00.386Z,50.28
2024-01-03T20:07:26.882Z,51.65
2024-01-03T20:09:53.488Z,52.72
2024-01-03T20:12:20.151Z,53.65
2024-01-03T20:14:46.797Z,54.62
2024-01-03T20:17:13.336Z,55.59
2024-01-03T20:19:39.905Z,59.79
2024-01-03T20:22:06.585Z,60.80
2024-01-03T20:24:33.061Z,62.81
2024-01-03T20:26:59.625Z,64.20
2024-01-03T20:29:26.151Z,63.45
2024-01-03T20:31:52.614Z,64.04
2024-01-03T20:34:19.356Z,64.16
2024-01-03T20:36:46.024Z,65.06
2024-01-03T20:39:12.569Z,63.95
2024-01-03T20:41:39.080Z,65.02
2024-01-03T20:44:05.874Z,63.96
2024-01-03T20:46:32.343Z,64.48
2024-01-03T20:48:59.051Z,66.91
2024-01-03T20:51:25.705Z,67.16
2024-01-03T20:53:52.189Z,66.12
2024-01-03T20:56:18.750Z,66.48
2024-01-03T20:58:45.499Z,64.59
2024-01-03T21:01:12.351Z,64.35
2024-01-03T21:03:38.880Z,62.67
2024-01-03T21:06:05.569Z,62.84
2024-01-03T21:08:32.688Z,64.82
2024-01-03T21:11:00.499Z,65.16
2024-01-03T21:13:28.169Z,64.32
2024-01-03T21:15:54.688Z,64.10
2024-01-03T21:18:21.658Z,64.62
2024-01-03T21:20:48.246Z,65.25
2024-01-03T21:23:14.766Z,65.06
2024-01-03T21:25:42.087Z,65.21
2024-01-03T21:28:08.578Z,63.49
2024-01-03T21:30:35.265Z,64.15
2024-01-03T21:33:01.918Z,64.54
2024-01-03T21:35:28.710Z,64.19
2024-01-03T21:37:55.231Z,64.74
2024-01-03T21:40:21.732Z,64.27
2024-01-03T21:42:48.210Z,63.99
2024-01-03T21:45:14.808Z,63.92
2024-01-03T21:47:41.532Z,64.08
2024-01-03T21:50:08.251Z,64.03
2024-01-03T21:52:34.718Z,63.52
2024-01-03T21:55:01.153Z,64.09
2024-01-03T21:57:27.764Z,63.35
2024-01-03T21:59:54.608Z,64.10
2024-01-03T22:02:21.070Z,63.24
2024-01-03T22:04:47.569Z,63.52
2024-01-03T22:07:14.046Z,62.97
2024-01-03T22:09:40.660Z,62.86
2024-01-03T22:12:07.428Z,62.56
2024-01-03T22:14:36.192Z,63.10
2024-01-03T22:17:02.899Z,62.87
2024-01-03T22:19:29.564Z,62.81
2024-01-03T22:21:56.102Z,62.06
2024-01-03T22:24:22.821Z,62.35
2024-01-03T22:26:49.574Z,62.47
2024-01-03T22:29:16.033Z,61.84
2024-01-03T22:31:42.487Z,62.03
2024-01-03T22:34:09.097Z,61.82
2024-01-03T22:36:35.570Z,62.32
2024-01-03T22:39:02.087Z,61.38
2024-01-03T22:41:28.648Z,61.69
2024-01-03T22:43:56.710Z,61.05
2024-01-03T22:46:23.199Z,60.53
2024-01-03T22:48:49.768Z,60.13
2024-01-03T22:51:16.669Z,61.31
2024-01-03T22:53:43.227Z,61.00
2024-01-03T22:56:09.705Z,60.56
2024-01-03T22:58:36.134Z,60.57
2024-01-03T23:01:02.663Z,60.52
2024-01-03T23:03:29.307Z,61.49
2024-01-03T23:05:55.878Z,60.96
2024-01-03T23:08:22.413Z,59.57
2024-01-03T23:10:48.887Z,60.26
2024-01-03T23:13:16.541Z,58.92
2024-01-03T23:15:42.993Z,57.99
2024-01-03T23:18:09.588Z,59.11
2024-01-03T23:20:36.387Z,58.38
2024-01-03T23:23:07.710Z,57.48
2024-01-03T23:25:37.114Z,57.03
2024-01-03T23:28:03.621Z,55.80
2024-01-03T23:30:30.200Z,55.50
2024-01-03T23:32:56.849Z,56.18
2024-01-03T23:35:23.430Z,55.13
2024-01-03T23:37:49.875Z,54.20
2024-01-03T23:40:17.300Z,54.10
2024-01-03T23:42:43.764Z,54.38
2024-01-03T23:45:12.534Z,54.05
2024-01-03T23:47:39.131Z,52.41
2024-01-03T23:50:05.723Z,53.67
2024-01-03T23:52:32.338Z,53.06
2024-01-03T23:54:58.797Z,54.33
2024-01-03T23:57:25.216Z,54.73
2024-01-03T23:59:51.717Z,54.88
